Terminal Aerodrome Forecast
Issued by NWS

Home | Current Version | Previous Version | Graphics & Text | Print | Product List | Glossary On
Versions: 1 2 3 4 5 6 7 8 9 10 11 12 13 14 15 16 17 18 19 20 21 22 23 24 25
000
FTUS45 KGGW 021100
TAFOLF
TAF
KOLF 021129Z 0212/0312 06008KT P6SM BKN150 WS010/18030KT
     FM021500 16008KT P6SM BKN140
     FM021800 24014KT P6SM BKN100
     FM022100 28020G30KT P6SM OVC025
     FM030000 34022KT P6SM OVC040=

USA.gov is the U.S. government's official web portal to all federal, state and local government web resources and services.